sensor_id;sensor_type;location;lat;lon;timestamp;pressure;altitude;pressure_sealevel;temperature;humidity
22580;BME280;11456;47.030;15.396;2023-03-14T00:01:24;96302.88;;;6.56;79.41
22580;BME280;11456;47.030;15.396;2023-03-14T00:03:50;96290.91;;;6.68;79.05
22580;BME280;11456;47.030;15.396;2023-03-14T00:06:17;96304.63;;;6.65;78.17
22580;BME280;11456;47.030;15.396;2023-03-14T00:08:44;96293.44;;;7.36;74.48
22580;BME280;11456;47.030;15.396;2023-03-14T00:11:12;96286.19;;;7.20;73.83
22580;BME280;11456;47.030;15.396;2023-03-14T00:13:39;96300.25;;;6.64;77.70
22580;BME280;11456;47.030;15.396;2023-03-14T00:16:07;96289.84;;;6.61;78.20
22580;BME280;11456;47.030;15.396;2023-03-14T00:18:34;96301.94;;;6.65;77.75
22580;BME280;11456;47.030;15.396;2023-03-14T00:21:01;96287.19;;;6.53;77.72
22580;BME280;11456;47.030;15.396;2023-03-14T00:23:28;96267.69;;;6.34;78.29
22580;BME280;11456;47.030;15.396;2023-03-14T00:26:03;96284.28;;;6.12;80.56
22580;BME280;11456;47.030;15.396;2023-03-14T00:28:30;96274.47;;;6.55;77.89
22580;BME280;11456;47.030;15.396;2023-03-14T00:30:57;96261.13;;;6.21;79.46
22580;BME280;11456;47.030;15.396;2023-03-14T00:33:25;96257.97;;;6.25;79.52
22580;BME280;11456;47.030;15.396;2023-03-14T00:35:54;96250.53;;;6.11;80.32
22580;BME280;11456;47.030;15.396;2023-03-14T00:38:20;96257.97;;;5.74;82.51
22580;BME280;11456;47.030;15.396;2023-03-14T00:40:47;96247.91;;;5.68;83.29
22580;BME280;11456;47.030;15.396;2023-03-14T00:43:15;96259.38;;;5.86;82.79
22580;BME280;11456;47.030;15.396;2023-03-14T00:45:41;96262.13;;;5.94;82.90
22580;BME280;11456;47.030;15.396;2023-03-14T00:48:08;96258.72;;;6.10;81.20
22580;BME280;11456;47.030;15.396;2023-03-14T00:50:35;96257.63;;;6.28;80.17
22580;BME280;11456;47.030;15.396;2023-03-14T00:53:01;96233.94;;;5.99;81.65
22580;BME280;11456;47.030;15.396;2023-03-14T00:55:28;96259.47;;;5.94;82.70
22580;BME280;11456;47.030;15.396;2023-03-14T00:57:55;96230.19;;;6.18;81.23
22580;BME280;11456;47.030;15.396;2023-03-14T01:00:21;96231.94;;;6.35;80.56
22580;BME280;11456;47.030;15.396;2023-03-14T01:02:48;96207.56;;;6.47;79.67
22580;BME280;11456;47.030;15.396;2023-03-14T01:05:15;96219.50;;;6.18;81.03
22580;BME280;11456;47.030;15.396;2023-03-14T01:07:42;96205.97;;;6.70;78.41
22580;BME280;11456;47.030;15.396;2023-03-14T01:10:08;96196.25;;;6.53;79.10
22580;BME280;11456;47.030;15.396;2023-03-14T01:12:36;96190.56;;;6.56;78.73
22580;BME280;11456;47.030;15.396;2023-03-14T01:15:02;96196.69;;;6.32;79.16
22580;BME280;11456;47.030;15.396;2023-03-14T01:17:29;96183.75;;;6.19;80.22
22580;BME280;11456;47.030;15.396;2023-03-14T01:19:56;96163.03;;;6.21;80.25
22580;BME280;11456;47.030;15.396;2023-03-14T01:22:22;96145.03;;;6.31;79.02
22580;BME280;11456;47.030;15.396;2023-03-14T01:24:49;96145.53;;;6.27;79.55
22580;BME280;11456;47.030;15.396;2023-03-14T01:27:15;96166.25;;;6.25;80.05
22580;BME280;11456;47.030;15.396;2023-03-14T01:29:42;96144.31;;;6.21;80.26
22580;BME280;11456;47.030;15.396;2023-03-14T01:32:09;96142.09;;;6.00;80.54
22580;BME280;11456;47.030;15.396;2023-03-14T01:34:35;96130.03;;;5.96;81.65
22580;BME280;11456;47.030;15.396;2023-03-14T01:37:02;96135.91;;;6.00;81.62
22580;BME280;11456;47.030;15.396;2023-03-14T01:39:29;96133.91;;;5.94;81.50
22580;BME280;11456;47.030;15.396;2023-03-14T01:41:56;96135.91;;;6.00;81.39
22580;BME280;11456;47.030;15.396;2023-03-14T01:44:22;96130.22;;;6.03;81.83
22580;BME280;11456;47.030;15.396;2023-03-14T01:46:49;96124.75;;;6.04;81.50
22580;BME280;11456;47.030;15.396;2023-03-14T01:49:17;96118.22;;;5.99;81.44
22580;BME280;11456;47.030;15.396;2023-03-14T01:52:00;96121.41;;;6.11;81.00
22580;BME280;11456;47.030;15.396;2023-03-14T01:54:31;96113.38;;;6.02;81.57
22580;BME280;11456;47.030;15.396;2023-03-14T01:57:03;96116.22;;;6.01;81.41
22580;BME280;11456;47.030;15.396;2023-03-14T01:59:31;96113.22;;;6.04;80.96
22580;BME280;11456;47.030;15.396;2023-03-14T02:01:59;96116.22;;;6.01;81.43
22580;BME280;11456;47.030;15.396;2023-03-14T02:04:30;96113.09;;;5.80;81.98
22580;BME280;11456;47.030;15.396;2023-03-14T02:07:22;96129.53;;;5.93;82.04
22580;BME280;11456;47.030;15.396;2023-03-14T02:10:09;96106.88;;;5.71;83.15
22580;BME280;11456;47.030;15.396;2023-03-14T02:12:36;96119.53;;;5.35;83.48
22580;BME280;11456;47.030;15.396;2023-03-14T02:15:08;96113.13;;;5.54;84.05
22580;BME280;11456;47.030;15.396;2023-03-14T02:18:02;96106.50;;;5.92;81.52
22580;BME280;11456;47.030;15.396;2023-03-14T02:20:52;96099.03;;;5.70;83.49
22580;BME280;11456;47.030;15.396;2023-03-14T02:23:23;96099.47;;;5.91;82.45
22580;BME280;11456;47.030;15.396;2023-03-14T02:25:56;96099.88;;;6.12;80.63
22580;BME280;11456;47.030;15.396;2023-03-14T02:28:24;96107.22;;;5.76;82.88
22580;BME280;11456;47.030;15.396;2023-03-14T02:30:55;96088.50;;;6.10;82.01
22580;BME280;11456;47.030;15.396;2023-03-14T02:33:21;96083.88;;;6.20;80.61
22580;BME280;11456;47.030;15.396;2023-03-14T02:35:56;96068.47;;;6.06;82.20
22580;BME280;11456;47.030;15.396;2023-03-14T02:38:29;96092.03;;;5.77;82.88
22580;BME280;11456;47.030;15.396;2023-03-14T02:40:59;96082.31;;;6.10;81.50
22580;BME280;11456;47.030;15.396;2023-03-14T02:43:27;96085.81;;;6.02;82.95
22580;BME280;11456;47.030;15.396;2023-03-14T02:45:59;96079.16;;;6.06;83.23
22580;BME280;11456;47.030;15.396;2023-03-14T02:48:28;96081.44;;;5.93;84.68
22580;BME280;11456;47.030;15.396;2023-03-14T02:50:58;96068.63;;;6.04;84.54
22580;BME280;11456;47.030;15.396;2023-03-14T02:53:30;96080.84;;;6.15;83.48
22580;BME280;11456;47.030;15.396;2023-03-14T02:56:01;96064.84;;;6.31;83.15
22580;BME280;11456;47.030;15.396;2023-03-14T02:58:29;96070.69;;;6.35;82.36
22580;BME280;11456;47.030;15.396;2023-03-14T03:01:05;96079.19;;;6.14;83.10
22580;BME280;11456;47.030;15.396;2023-03-14T03:03:31;96071.81;;;6.16;83.43
22580;BME280;11456;47.030;15.396;2023-03-14T03:05:58;96070.69;;;6.43;82.50
22580;BME280;11456;47.030;15.396;2023-03-14T03:08:25;96066.88;;;6.46;82.84
22580;BME280;11456;47.030;15.396;2023-03-14T03:10:53;96068.88;;;6.43;82.02
22580;BME280;11456;47.030;15.396;2023-03-14T03:13:19;96076.88;;;6.35;82.39
22580;BME280;11456;47.030;15.396;2023-03-14T03:15:50;96081.16;;;6.12;85.05
22580;BME280;11456;47.030;15.396;2023-03-14T03:18:17;96075.41;;;6.81;81.13
22580;BME280;11456;47.030;15.396;2023-03-14T03:20:44;96068.19;;;6.41;83.25
22580;BME280;11456;47.030;15.396;2023-03-14T03:23:12;96054.31;;;6.54;83.72
22580;BME280;11456;47.030;15.396;2023-03-14T03:25:38;96063.88;;;6.57;83.11
22580;BME280;11456;47.030;15.396;2023-03-14T03:28:05;96092.25;;;6.41;83.36
22580;BME280;11456;47.030;15.396;2023-03-14T03:30:37;96073.72;;;6.48;83.30
22580;BME280;11456;47.030;15.396;2023-03-14T03:33:04;96076.91;;;6.68;81.79
22580;BME280;11456;47.030;15.396;2023-03-14T03:35:31;96081.75;;;6.64;81.77
22580;BME280;11456;47.030;15.396;2023-03-14T03:37:58;96067.72;;;6.46;82.97
22580;BME280;11456;47.030;15.396;2023-03-14T03:40:26;96074.22;;;6.43;84.01
22580;BME280;11456;47.030;15.396;2023-03-14T03:42:52;96099.25;;;6.34;83.98
22580;BME280;11456;47.030;15.396;2023-03-14T03:45:19;96097.47;;;6.75;82.34
22580;BME280;11456;47.030;15.396;2023-03-14T03:47:51;96107.00;;;6.78;82.19
22580;BME280;11456;47.030;15.396;2023-03-14T03:50:17;96108.50;;;6.64;82.89
22580;BME280;11456;47.030;15.396;2023-03-14T03:52:44;96100.97;;;6.60;83.64
22580;BME280;11456;47.030;15.396;2023-03-14T03:55:10;96093.44;;;7.20;80.28
22580;BME280;11456;47.030;15.396;2023-03-14T03:57:37;96105.50;;;6.75;81.49
22580;BME280;11456;47.030;15.396;2023-03-14T04:00:04;96114.53;;;6.58;83.09
22580;BME280;11456;47.030;15.396;2023-03-14T04:02:39;96123.22;;;6.76;83.17
22580;BME280;11456;47.030;15.396;2023-03-14T04:05:08;96117.22;;;6.82;82.13
22580;BME280;11456;47.030;15.396;2023-03-14T04:07:37;96103.69;;;6.84;82.93
22580;BME280;11456;47.030;15.396;2023-03-14T04:10:05;96106.00;;;6.95;81.89
22580;BME280;11456;47.030;15.396;2023-03-14T04:12:35;96117.69;;;6.86;82.90
22580;BME280;11456;47.030;15.396;2023-03-14T04:15:09;96115.38;;;6.91;82.64
22580;BME280;11456;47.030;15.396;2023-03-14T04:17:38;96111.84;;;6.82;83.64
22580;BME280;11456;47.030;15.396;2023-03-14T04:20:05;96100.31;;;6.98;83.40
22580;BME280;11456;47.030;15.396;2023-03-14T04:22:37;96108.00;;;6.93;83.99
22580;BME280;11456;47.030;15.396;2023-03-14T04:25:04;96119.38;;;7.11;83.95
22580;BME280;11456;47.030;15.396;2023-03-14T04:27:35;96122.38;;;7.24;83.16
22580;BME280;11456;47.030;15.396;2023-03-14T04:30:05;96123.72;;;7.29;83.20
22580;BME280;11456;47.030;15.396;2023-03-14T04:32:49;96122.69;;;7.38;82.19
22580;BME280;11456;47.030;15.396;2023-03-14T04:35:17;96107.59;;;7.61;81.20
22580;BME280;11456;47.030;15.396;2023-03-14T04:37:44;96108.84;;;7.81;80.33
22580;BME280;11456;47.030;15.396;2023-03-14T04:40:13;96115.38;;;7.87;80.50
22580;BME280;11456;47.030;15.396;2023-03-14T04:42:42;96091.41;;;7.93;79.82
22580;BME280;11456;47.030;15.396;2023-03-14T04:45:09;96106.50;;;7.86;79.98
22580;BME280;11456;47.030;15.396;2023-03-14T04:47:38;96103.69;;;7.72;81.18
22580;BME280;11456;47.030;15.396;2023-03-14T04:50:06;96099.78;;;7.82;81.21
22580;BME280;11456;47.030;15.396;2023-03-14T04:52:32;96098.13;;;7.81;80.88
22580;BME280;11456;47.030;15.396;2023-03-14T04:55:00;96106.22;;;7.73;80.74
22580;BME280;11456;47.030;15.396;2023-03-14T04:57:26;96120.63;;;7.64;81.31
22580;BME280;11456;47.030;15.396;2023-03-14T04:59:54;96111.50;;;7.81;80.75
22580;BME280;11456;47.030;15.396;2023-03-14T05:02:38;96102.78;;;7.87;80.85
22580;BME280;11456;47.030;15.396;2023-03-14T05:05:14;96101.47;;;7.83;81.79
22580;BME280;11456;47.030;15.396;2023-03-14T05:07:57;96079.59;;;8.64;76.87
22580;BME280;11456;47.030;15.396;2023-03-14T05:11:01;96093.25;;;8.24;78.39
22580;BME280;11456;47.030;15.396;2023-03-14T05:13:52;96095.13;;;7.76;80.81
22580;BME280;11456;47.030;15.396;2023-03-14T05:16:53;96099.69;;;7.68;82.51
22580;BME280;11456;47.030;15.396;2023-03-14T05:19:32;96098.63;;;7.85;82.12
22580;BME280;11456;47.030;15.396;2023-03-14T05:22:19;96086.97;;;8.00;82.38
22580;BME280;11456;47.030;15.396;2023-03-14T05:24:59;96099.75;;;7.98;81.91
22580;BME280;11456;47.030;15.396;2023-03-14T05:27:25;96097.41;;;7.87;82.03
22580;BME280;11456;47.030;15.396;2023-03-14T05:30:06;96092.34;;;8.00;81.51
22580;BME280;11456;47.030;15.396;2023-03-14T05:33:05;96075.41;;;8.39;80.13
22580;BME280;11456;47.030;15.396;2023-03-14T05:35:41;96079.53;;;8.19;81.46
22580;BME280;11456;47.030;15.396;2023-03-14T05:38:31;96070.75;;;8.33;81.85
22580;BME280;11456;47.030;15.396;2023-03-14T05:41:18;96065.31;;;8.49;81.10
22580;BME280;11456;47.030;15.396;2023-03-14T05:44:04;96069.22;;;8.61;80.33
22580;BME280;11456;47.030;15.396;2023-03-14T05:46:39;96068.19;;;8.70;80.41
22580;BME280;11456;47.030;15.396;2023-03-14T05:49:31;96064.44;;;8.71;80.91
22580;BME280;11456;47.030;15.396;2023-03-14T05:52:07;96073.53;;;8.70;81.97
22580;BME280;11456;47.030;15.396;2023-03-14T05:55:09;96077.56;;;8.66;81.06
22580;BME280;11456;47.030;15.396;2023-03-14T05:57:57;96063.72;;;8.77;80.84
22580;BME280;11456;47.030;15.396;2023-03-14T06:00:43;96047.50;;;8.94;80.36
22580;BME280;11456;47.030;15.396;2023-03-14T06:03:29;96066.59;;;8.99;79.96
22580;BME280;11456;47.030;15.396;2023-03-14T06:05:56;96059.53;;;8.98;80.61
22580;BME280;11456;47.030;15.396;2023-03-14T06:08:23;96063.84;;;8.84;80.07
22580;BME280;11456;47.030;15.396;2023-03-14T06:10:51;96031.13;;;9.03;79.84
22580;BME280;11456;47.030;15.396;2023-03-14T06:13:20;96029.06;;;9.28;79.17
22580;BME280;11456;47.030;15.396;2023-03-14T06:15:46;96037.75;;;9.30;79.54
22580;BME280;11456;47.030;15.396;2023-03-14T06:18:13;96053.31;;;9.35;78.59
22580;BME280;11456;47.030;15.396;2023-03-14T06:20:41;96068.69;;;9.26;79.20
22580;BME280;11456;47.030;15.396;2023-03-14T06:23:11;96064.88;;;9.35;79.24
22580;BME280;11456;47.030;15.396;2023-03-14T06:25:37;96046.72;;;9.66;77.49
22580;BME280;11456;47.030;15.396;2023-03-14T06:28:04;96057.41;;;9.75;77.98
22580;BME280;11456;47.030;15.396;2023-03-14T06:30:30;96045.81;;;9.89;78.39
22580;BME280;11456;47.030;15.396;2023-03-14T06:32:57;96044.97;;;10.03;77.58
22580;BME280;11456;47.030;15.396;2023-03-14T06:35:24;96048.47;;;10.18;77.30
22580;BME280;11456;47.030;15.396;2023-03-14T06:37:52;96045.66;;;10.26;77.11
22580;BME280;11456;47.030;15.396;2023-03-14T06:40:18;96055.34;;;10.78;75.33
22580;BME280;11456;47.030;15.396;2023-03-14T06:42:52;96056.84;;;11.08;75.14
22580;BME280;11456;47.030;15.396;2023-03-14T06:45:21;96054.91;;;11.23;73.43
22580;BME280;11456;47.030;15.396;2023-03-14T06:47:47;96063.47;;;11.06;73.55
22580;BME280;11456;47.030;15.396;2023-03-14T06:50:15;96063.28;;;11.63;73.11
22580;BME280;11456;47.030;15.396;2023-03-14T06:52:45;96055.13;;;11.84;73.05
22580;BME280;11456;47.030;15.396;2023-03-14T06:55:18;96053.44;;;12.18;72.52
22580;BME280;11456;47.030;15.396;2023-03-14T06:57:48;96044.34;;;12.32;71.65
22580;BME280;11456;47.030;15.396;2023-03-14T07:00:14;96028.06;;;12.66;71.14
22580;BME280;11456;47.030;15.396;2023-03-14T07:02:41;96022.81;;;13.83;67.94
22580;BME280;11456;47.030;15.396;2023-03-14T07:05:20;96019.78;;;14.24;66.36
22580;BME280;11456;47.030;15.396;2023-03-14T07:07:47;96018.75;;;14.70;64.04
22580;BME280;11456;47.030;15.396;2023-03-14T07:10:14;96021.66;;;15.00;65.09
22580;BME280;11456;47.030;15.396;2023-03-14T07:12:40;96016.06;;;15.44;60.26
22580;BME280;11456;47.030;15.396;2023-03-14T07:15:07;96016.19;;;15.99;59.79
22580;BME280;11456;47.030;15.396;2023-03-14T07:17:58;96022.75;;;16.28;57.47
22580;BME280;11456;47.030;15.396;2023-03-14T07:20:25;96026.75;;;16.62;58.73
22580;BME280;11456;47.030;15.396;2023-03-14T07:22:52;96036.66;;;16.98;55.86
22580;BME280;11456;47.030;15.396;2023-03-14T07:25:29;96046.56;;;17.22;57.05
22580;BME280;11456;47.030;15.396;2023-03-14T07:27:56;96033.69;;;17.29;57.44
22580;BME280;11456;47.030;15.396;2023-03-14T07:30:22;96044.16;;;16.54;58.03
22580;BME280;11456;47.030;15.396;2023-03-14T07:32:49;96042.22;;;16.25;59.75
22580;BME280;11456;47.030;15.396;2023-03-14T07:35:20;96026.88;;;15.94;61.01
22580;BME280;11456;47.030;15.396;2023-03-14T07:37:47;96021.66;;;15.49;62.36
22580;BME280;11456;47.030;15.396;2023-03-14T07:40:16;96027.44;;;15.35;62.86
22580;BME280;11456;47.030;15.396;2023-03-14T07:42:43;96020.59;;;15.57;62.73
22580;BME280;11456;47.030;15.396;2023-03-14T07:45:24;96005.72;;;16.02;61.48
22580;BME280;11456;47.030;15.396;2023-03-14T07:47:51;96000.25;;;15.66;62.72
22580;BME280;11456;47.030;15.396;2023-03-14T07:50:17;95979.19;;;16.34;60.59
22580;BME280;11456;47.030;15.396;2023-03-14T07:52:45;95994.19;;;17.38;58.53
22580;BME280;11456;47.030;15.396;2023-03-14T07:55:11;95976.03;;;18.25;55.32
22580;BME280;11456;47.030;15.396;2023-03-14T07:57:39;95995.84;;;18.09;54.02
22580;BME280;11456;47.030;15.396;2023-03-14T08:00:06;95996.19;;;17.54;55.83
22580;BME280;11456;47.030;15.396;2023-03-14T08:02:38;95968.63;;;18.77;53.16
22580;BME280;11456;47.030;15.396;2023-03-14T08:05:05;95959.13;;;19.58;50.87
22580;BME280;11456;47.030;15.396;2023-03-14T08:07:31;95971.59;;;20.10;49.07
22580;BME280;11456;47.030;15.396;2023-03-14T08:09:58;95968.78;;;20.05;48.42
22580;BME280;11456;47.030;15.396;2023-03-14T08:12:24;95957.78;;;20.38;48.18
22580;BME280;11456;47.030;15.396;2023-03-14T08:14:51;95943.22;;;21.13;47.32
22580;BME280;11456;47.030;15.396;2023-03-14T08:17:18;95949.34;;;20.93;47.07
22580;BME280;11456;47.030;15.396;2023-03-14T08:19:44;95937.47;;;21.36;46.15
22580;BME280;11456;47.030;15.396;2023-03-14T08:22:11;95935.97;;;20.97;44.85
22580;BME280;11456;47.030;15.396;2023-03-14T08:24:37;95926.34;;;21.16;44.33
22580;BME280;11456;47.030;15.396;2023-03-14T08:27:04;95936.31;;;21.32;44.65
22580;BME280;11456;47.030;15.396;2023-03-14T08:29:30;95940.31;;;20.93;43.40
22580;BME280;11456;47.030;15.396;2023-03-14T08:31:57;95943.53;;;19.97;46.56
22580;BME280;11456;47.030;15.396;2023-03-14T08:34:23;95932.78;;;19.52;46.30
22580;BME280;11456;47.030;15.396;2023-03-14T08:36:50;95933.78;;;19.30;46.18
22580;BME280;11456;47.030;15.396;2023-03-14T08:39:16;95927.94;;;20.36;44.28
22580;BME280;11456;47.030;15.396;2023-03-14T08:41:43;95929.66;;;20.21;45.71
22580;BME280;11456;47.030;15.396;2023-03-14T08:44:10;95919.31;;;20.71;43.86
22580;BME280;11456;47.030;15.396;2023-03-14T08:46:44;95930.44;;;20.38;44.90
22580;BME280;11456;47.030;15.396;2023-03-14T08:49:10;95913.13;;;21.45;42.79
22580;BME280;11456;47.030;15.396;2023-03-14T08:51:37;95911.81;;;21.94;41.94
22580;BME280;11456;47.030;15.396;2023-03-14T08:54:03;95925.97;;;21.39;41.91
22580;BME280;11456;47.030;15.396;2023-03-14T08:56:30;95933.84;;;21.04;43.84
22580;BME280;11456;47.030;15.396;2023-03-14T08:58:56;95944.19;;;20.97;43.61
22580;BME280;11456;47.030;15.396;2023-03-14T09:01:23;95949.06;;;20.41;43.55
22580;BME280;11456;47.030;15.396;2023-03-14T09:03:51;95937.41;;;20.29;43.91
22580;BME280;11456;47.030;15.396;2023-03-14T09:06:18;95939.16;;;18.91;47.03
22580;BME280;11456;47.030;15.396;2023-03-14T09:08:44;95944.38;;;19.09;46.37
22580;BME280;11456;47.030;15.396;2023-03-14T09:11:12;95926.88;;;18.77;47.80
22580;BME280;11456;47.030;15.396;2023-03-14T09:13:38;95915.59;;;18.85;47.76
22580;BME280;11456;47.030;15.396;2023-03-14T09:16:05;95929.09;;;18.63;47.10
22580;BME280;11456;47.030;15.396;2023-03-14T09:18:32;95922.44;;;18.42;47.32
22580;BME280;11456;47.030;15.396;2023-03-14T09:20:59;95923.19;;;18.26;48.04
22580;BME280;11456;47.030;15.396;2023-03-14T09:23:25;95931.66;;;18.41;47.34
22580;BME280;11456;47.030;15.396;2023-03-14T09:25:55;95921.66;;;17.79;48.39
22580;BME280;11456;47.030;15.396;2023-03-14T09:28:22;95917.84;;;17.80;48.55
22580;BME280;11456;47.030;15.396;2023-03-14T09:30:48;95927.81;;;17.39;48.96
22580;BME280;11456;47.030;15.396;2023-03-14T09:33:16;95924.28;;;17.27;49.93
22580;BME280;11456;47.030;15.396;2023-03-14T09:35:42;95929.13;;;17.25;50.13
22580;BME280;11456;47.030;15.396;2023-03-14T09:38:09;95931.22;;;17.00;50.16
22580;BME280;11456;47.030;15.396;2023-03-14T09:40:36;95923.03;;;16.47;51.60
22580;BME280;11456;47.030;15.396;2023-03-14T09:43:03;95924.88;;;16.64;51.47
22580;BME280;11456;47.030;15.396;2023-03-14T09:45:34;95923.84;;;16.47;51.75
22580;BME280;11456;47.030;15.396;2023-03-14T09:48:02;95924.41;;;16.67;51.60
22580;BME280;11456;47.030;15.396;2023-03-14T09:50:31;95916.72;;;16.64;51.70
22580;BME280;11456;47.030;15.396;2023-03-14T09:53:02;95906.22;;;16.68;51.22
22580;BME280;11456;47.030;15.396;2023-03-14T09:55:29;95911.94;;;16.90;50.90
22580;BME280;11456;47.030;15.396;2023-03-14T09:57:59;95909.47;;;16.88;50.40
22580;BME280;11456;47.030;15.396;2023-03-14T10:00:28;95910.63;;;16.80;50.81
22580;BME280;11456;47.030;15.396;2023-03-14T10:03:20;95919.72;;;16.74;52.05
22580;BME280;11456;47.030;15.396;2023-03-14T10:05:46;95926.09;;;16.68;52.56
22580;BME280;11456;47.030;15.396;2023-03-14T10:08:13;95926.16;;;17.15;51.98
22580;BME280;11456;47.030;15.396;2023-03-14T10:10:40;95921.78;;;17.02;53.17
22580;BME280;11456;47.030;15.396;2023-03-14T10:15:33;95909.84;;;17.15;52.62
22580;BME280;11456;47.030;15.396;2023-03-14T10:18:01;95911.63;;;17.33;51.60
22580;BME280;11456;47.030;15.396;2023-03-14T10:20:30;95907.44;;;18.57;50.37
22580;BME280;11456;47.030;15.396;2023-03-14T10:23:05;95898.28;;;18.34;50.27
22580;BME280;11456;47.030;15.396;2023-03-14T10:25:34;95879.66;;;18.43;49.37
22580;BME280;11456;47.030;15.396;2023-03-14T10:28:01;95868.75;;;18.43;48.05
22580;BME280;11456;47.030;15.396;2023-03-14T10:30:39;95885.09;;;18.43;47.97
22580;BME280;11456;47.030;15.396;2023-03-14T10:36:17;95905.47;;;18.12;48.22
22580;BME280;11456;47.030;15.396;2023-03-14T10:38:45;95894.50;;;18.35;46.83
22580;BME280;11456;47.030;15.396;2023-03-14T10:41:25;95901.47;;;18.03;47.11
22580;BME280;11456;47.030;15.396;2023-03-14T10:43:58;95891.56;;;17.97;46.67
22580;BME280;11456;47.030;15.396;2023-03-14T10:46:26;95873.25;;;18.66;45.73
22580;BME280;11456;47.030;15.396;2023-03-14T10:49:23;95876.06;;;18.71;44.08
22580;BME280;11456;47.030;15.396;2023-03-14T10:51:51;95889.22;;;18.74;42.45
22580;BME280;11456;47.030;15.396;2023-03-14T10:54:21;95908.47;;;18.84;40.50
22580;BME280;11456;47.030;15.396;2023-03-14T10:56:59;95908.78;;;18.42;40.65
22580;BME280;11456;47.030;15.396;2023-03-14T10:59:27;95906.31;;;18.69;40.54
22580;BME280;11456;47.030;15.396;2023-03-14T11:01:55;95907.13;;;18.13;40.40
22580;BME280;11456;47.030;15.396;2023-03-14T11:04:46;95915.03;;;17.51;40.82
22580;BME280;11456;47.030;15.396;2023-03-14T11:10:33;95911.47;;;17.86;39.87
22580;BME280;11456;47.030;15.396;2023-03-14T11:21:37;95936.25;;;18.81;36.66
22580;BME280;11456;47.030;15.396;2023-03-14T11:31:53;95929.34;;;19.07;37.82
22580;BME280;11456;47.030;15.396;2023-03-14T11:34:27;95927.97;;;18.76;38.14
22580;BME280;11456;47.030;15.396;2023-03-14T11:39:23;95910.56;;;19.82;36.18
22580;BME280;11456;47.030;15.396;2023-03-14T11:41:52;95899.06;;;19.08;37.02
22580;BME280;11456;47.030;15.396;2023-03-14T11:44:27;95898.06;;;18.98;37.59
22580;BME280;11456;47.030;15.396;2023-03-14T11:46:57;95898.16;;;18.86;37.87
22580;BME280;11456;47.030;15.396;2023-03-14T11:49:31;95893.66;;;18.35;39.04
22580;BME280;11456;47.030;15.396;2023-03-14T11:51:59;95904.09;;;17.98;39.66
22580;BME280;11456;47.030;15.396;2023-03-14T11:54:39;95907.19;;;17.90;39.74
22580;BME280;11456;47.030;15.396;2023-03-14T11:57:16;95914.19;;;18.54;38.28
22580;BME280;11456;47.030;15.396;2023-03-14T12:02:53;95902.56;;;19.97;38.21
22580;BME280;11456;47.030;15.396;2023-03-14T12:10:12;95897.50;;;19.84;39.05
22580;BME280;11456;47.030;15.396;2023-03-14T12:12:39;95886.78;;;21.39;37.44
22580;BME280;11456;47.030;15.396;2023-03-14T12:15:15;95898.09;;;21.47;33.67
22580;BME280;11456;47.030;15.396;2023-03-14T12:17:44;95893.94;;;22.49;34.21
22580;BME280;11456;47.030;15.396;2023-03-14T12:20:18;95889.88;;;24.04;30.71
22580;BME280;11456;47.030;15.396;2023-03-14T12:22:52;95894.34;;;23.18;32.68
22580;BME280;11456;47.030;15.396;2023-03-14T12:25:21;95894.75;;;20.76;33.90
22580;BME280;11456;47.030;15.396;2023-03-14T12:35:45;95884.25;;;20.68;34.77
22580;BME280;11456;47.030;15.396;2023-03-14T12:43:27;95893.38;;;18.48;37.02
22580;BME280;11456;47.030;15.396;2023-03-14T12:46:37;95889.44;;;18.44;38.17
22580;BME280;11456;47.030;15.396;2023-03-14T12:48:45;95896.13;;;18.65;37.26
22580;BME280;11456;47.030;15.396;2023-03-14T12:51:13;95895.47;;;18.29;37.74
22580;BME280;11456;47.030;15.396;2023-03-14T13:01:16;95906.50;;;17.36;38.87
22580;BME280;11456;47.030;15.396;2023-03-14T13:03:45;95906.53;;;17.13;40.16
22580;BME280;11456;47.030;15.396;2023-03-14T13:06:12;95914.97;;;16.70;40.98
22580;BME280;11456;47.030;15.396;2023-03-14T13:11:07;95915.56;;;16.42;42.34
22580;BME280;11456;47.030;15.396;2023-03-14T13:13:35;95910.59;;;16.69;41.39
22580;BME280;11456;47.030;15.396;2023-03-14T13:16:03;95914.47;;;16.31;41.74
22580;BME280;11456;47.030;15.396;2023-03-14T13:18:35;95915.38;;;16.55;41.83
22580;BME280;11456;47.030;15.396;2023-03-14T13:21:03;95925.38;;;16.73;41.57
22580;BME280;11456;47.030;15.396;2023-03-14T13:23:32;95915.66;;;16.06;43.50
22580;BME280;11456;47.030;15.396;2023-03-14T13:25:59;95919.91;;;15.83;43.91
22580;BME280;11456;47.030;15.396;2023-03-14T13:28:26;95910.69;;;15.84;43.73
22580;BME280;11456;47.030;15.396;2023-03-14T13:30:54;95903.41;;;15.67;44.45
22580;BME280;11456;47.030;15.396;2023-03-14T13:33:22;95902.25;;;15.92;44.47
22580;BME280;11456;47.030;15.396;2023-03-14T13:35:54;95901.19;;;15.93;44.12
22580;BME280;11456;47.030;15.396;2023-03-14T13:38:22;95918.09;;;15.59;45.04
22580;BME280;11456;47.030;15.396;2023-03-14T13:40:50;95917.78;;;15.49;44.91
22580;BME280;11456;47.030;15.396;2023-03-14T13:48:31;95915.09;;;15.67;45.53
22580;BME280;11456;47.030;15.396;2023-03-14T13:51:03;95907.50;;;15.51;45.43
22580;BME280;11456;47.030;15.396;2023-03-14T13:53:31;95902.22;;;15.38;45.69
22580;BME280;11456;47.030;15.396;2023-03-14T13:56:00;95901.03;;;15.34;45.46
22580;BME280;11456;47.030;15.396;2023-03-14T13:58:28;95898.34;;;15.70;44.86
22580;BME280;11456;47.030;15.396;2023-03-14T14:03:25;95904.13;;;15.92;44.64
22580;BME280;11456;47.030;15.396;2023-03-14T14:05:52;95911.16;;;15.99;45.52
22580;BME280;11456;47.030;15.396;2023-03-14T14:08:20;95908.28;;;15.76;44.77
22580;BME280;11456;47.030;15.396;2023-03-14T14:10:47;95906.00;;;16.10;45.16
22580;BME280;11456;47.030;15.396;2023-03-14T14:13:14;95912.91;;;16.24;43.69
22580;BME280;11456;47.030;15.396;2023-03-14T14:15:45;95917.09;;;16.38;43.80
22580;BME280;11456;47.030;15.396;2023-03-14T14:18:14;95914.19;;;16.51;43.94